sensor_id;sensor_type;location;lat;lon;timestamp;pressure;altitude;pressure_sealevel;temperature;humidity
3968;BME280;9221;42.646;23.380;2022-10-17T00:01:22;95868.31;;;9.25;77.40
3968;BME280;9221;42.646;23.380;2022-10-17T00:03:47;95886.03;;;9.47;77.45
3968;BME280;9221;42.646;23.380;2022-10-17T00:06:14;95839.19;;;9.15;77.90
3968;BME280;9221;42.646;23.380;2022-10-17T00:11:24;95865.66;;;9.25;76.46
3968;BME280;9221;42.646;23.380;2022-10-17T00:13:53;95871.69;;;9.27;76.19
3968;BME280;9221;42.646;23.380;2022-10-17T00:16:23;95885.44;;;9.30;76.32
3968;BME280;9221;42.646;23.380;2022-10-17T00:18:49;95925.94;;;9.04;76.72
3968;BME280;9221;42.646;23.380;2022-10-17T00:21:19;95885.13;;;8.85;77.34
3968;BME280;9221;42.646;23.380;2022-10-17T00:23:46;95882.41;;;8.61;78.66
3968;BME280;9221;42.646;23.380;2022-10-17T00:26:12;95882.53;;;8.59;78.67
3968;BME280;9221;42.646;23.380;2022-10-17T00:28:38;95815.72;;;8.10;79.05
3968;BME280;9221;42.646;23.380;2022-10-17T00:31:05;95876.84;;;8.53;79.98
3968;BME280;9221;42.646;23.380;2022-10-17T00:33:32;95883.78;;;8.54;80.11
3968;BME280;9221;42.646;23.380;2022-10-17T00:36:08;95859.47;;;8.37;79.94
3968;BME280;9221;42.646;23.380;2022-10-17T00:38:36;95871.47;;;8.28;80.58
3968;BME280;9221;42.646;23.380;2022-10-17T00:41:02;95827.72;;;8.14;80.57
3968;BME280;9221;42.646;23.380;2022-10-17T00:43:28;95923.19;;;8.41;80.81
3968;BME280;9221;42.646;23.380;2022-10-17T00:45:55;95929.28;;;8.28;81.10
3968;BME280;9221;42.646;23.380;2022-10-17T00:48:21;95907.00;;;7.94;80.81
3968;BME280;9221;42.646;23.380;2022-10-17T00:50:48;95932.25;;;8.50;80.91
3968;BME280;9221;42.646;23.380;2022-10-17T00:53:14;95814.69;;;8.00;80.71
3968;BME280;9221;42.646;23.380;2022-10-17T00:55:47;95881.75;;;8.44;81.86
3968;BME280;9221;42.646;23.380;2022-10-17T00:58:14;95897.56;;;8.70;80.79
3968;BME280;9221;42.646;23.380;2022-10-17T01:00:41;95879.69;;;8.75;79.74
3968;BME280;9221;42.646;23.380;2022-10-17T01:03:07;95885.03;;;8.74;79.66
3968;BME280;9221;42.646;23.380;2022-10-17T01:05:33;95867.47;;;8.49;80.43
3968;BME280;9221;42.646;23.380;2022-10-17T01:07:58;95773.91;;;7.94;80.04
3968;BME280;9221;42.646;23.380;2022-10-17T01:10:30;95914.41;;;8.55;80.67
3968;BME280;9221;42.646;23.380;2022-10-17T01:16:03;95879.28;;;8.56;80.88
3968;BME280;9221;42.646;23.380;2022-10-17T01:31:47;95721.19;;;7.59;80.84
3968;BME280;9221;42.646;23.380;2022-10-17T01:36:55;95946.00;;;8.40;81.52
3968;BME280;9221;42.646;23.380;2022-10-17T01:42:16;95833.28;;;7.97;82.03
3968;BME280;9221;42.646;23.380;2022-10-17T01:44:57;95840.00;;;8.01;82.27
3968;BME280;9221;42.646;23.380;2022-10-17T01:47:31;95891.22;;;8.34;81.65
3968;BME280;9221;42.646;23.380;2022-10-17T01:50:32;95897.31;;;8.22;82.58
3968;BME280;9221;42.646;23.380;2022-10-17T01:53:01;95843.66;;;7.86;82.52
3968;BME280;9221;42.646;23.380;2022-10-17T01:55:35;95872.06;;;8.06;82.61
3968;BME280;9221;42.646;23.380;2022-10-17T01:58:06;95850.81;;;7.84;82.92
3968;BME280;9221;42.646;23.380;2022-10-17T02:00:34;95916.72;;;8.06;83.13
3968;BME280;9221;42.646;23.380;2022-10-17T02:03:04;95914.50;;;8.00;83.35
3968;BME280;9221;42.646;23.380;2022-10-17T02:05:36;95854.56;;;7.79;83.31
3968;BME280;9221;42.646;23.380;2022-10-17T02:08:03;95900.22;;;8.04;82.74
3968;BME280;9221;42.646;23.380;2022-10-17T02:10:43;95938.34;;;7.97;83.50
3968;BME280;9221;42.646;23.380;2022-10-17T02:27:28;95914.22;;;7.77;84.93
3968;BME280;9221;42.646;23.380;2022-10-17T02:30:00;95925.72;;;7.62;84.82
3968;BME280;9221;42.646;23.380;2022-10-17T02:32:41;95857.91;;;7.14;85.56
3968;BME280;9221;42.646;23.380;2022-10-17T02:35:12;95936.81;;;7.53;85.35
3968;BME280;9221;42.646;23.380;2022-10-17T02:37:39;95915.47;;;7.44;85.24
3968;BME280;9221;42.646;23.380;2022-10-17T02:40:07;95911.81;;;7.47;86.06
3968;BME280;9221;42.646;23.380;2022-10-17T02:42:35;95925.06;;;7.58;85.88
3968;BME280;9221;42.646;23.380;2022-10-17T02:45:01;95956.78;;;7.55;86.09
3968;BME280;9221;42.646;23.380;2022-10-17T02:47:58;95933.03;;;7.57;86.10
3968;BME280;9221;42.646;23.380;2022-10-17T02:53:36;95937.06;;;7.62;85.95
3968;BME280;9221;42.646;23.380;2022-10-17T02:56:09;95930.97;;;7.62;85.21
3968;BME280;9221;42.646;23.380;2022-10-17T02:58:39;95937.06;;;7.62;85.43
3968;BME280;9221;42.646;23.380;2022-10-17T03:01:07;95941.69;;;7.59;85.33
3968;BME280;9221;42.646;23.380;2022-10-17T03:03:32;95958.47;;;7.56;85.40
3968;BME280;9221;42.646;23.380;2022-10-17T03:05:58;95948.47;;;7.76;85.41
3968;BME280;9221;42.646;23.380;2022-10-17T03:08:23;95926.41;;;7.51;84.96
3968;BME280;9221;42.646;23.380;2022-10-17T03:10:49;95886.94;;;7.25;85.49
3968;BME280;9221;42.646;23.380;2022-10-17T03:13:16;95895.16;;;7.34;85.13
3968;BME280;9221;42.646;23.380;2022-10-17T03:15:41;95939.22;;;7.56;85.49
3968;BME280;9221;42.646;23.380;2022-10-17T03:18:07;95942.59;;;7.72;84.61
3968;BME280;9221;42.646;23.380;2022-10-17T03:20:33;95993.97;;;7.62;85.42
3968;BME280;9221;42.646;23.380;2022-10-17T03:22:58;95948.97;;;7.68;85.74
3968;BME280;9221;42.646;23.380;2022-10-17T03:25:24;95935.28;;;7.63;85.13
3968;BME280;9221;42.646;23.380;2022-10-17T03:27:50;95948.56;;;7.74;84.29
3968;BME280;9221;42.646;23.380;2022-10-17T03:30:16;95966.94;;;7.74;84.58
3968;BME280;9221;42.646;23.380;2022-10-17T03:32:42;95910.16;;;7.32;84.46
3968;BME280;9221;42.646;23.380;2022-10-17T03:35:07;95945.19;;;7.45;85.72
3968;BME280;9221;42.646;23.380;2022-10-17T03:37:33;95971.88;;;7.52;85.83
3968;BME280;9221;42.646;23.380;2022-10-17T03:39:58;95951.22;;;7.33;85.94
3968;BME280;9221;42.646;23.380;2022-10-17T03:42:24;95999.84;;;7.38;86.18
3968;BME280;9221;42.646;23.380;2022-10-17T03:44:49;95968.00;;;7.30;86.26
3968;BME280;9221;42.646;23.380;2022-10-17T03:47:14;95974.00;;;7.18;87.08
3968;BME280;9221;42.646;23.380;2022-10-17T03:49:40;95882.03;;;6.77;87.07
3968;BME280;9221;42.646;23.380;2022-10-17T03:52:05;95967.06;;;7.17;87.22
3968;BME280;9221;42.646;23.380;2022-10-17T03:54:34;95903.56;;;6.68;87.69
3968;BME280;9221;42.646;23.380;2022-10-17T03:57:00;95974.00;;;7.18;87.35
3968;BME280;9221;42.646;23.380;2022-10-17T03:59:25;95985.03;;;7.23;87.88
3968;BME280;9221;42.646;23.380;2022-10-17T04:01:51;95972.00;;;7.36;86.90
3968;BME280;9221;42.646;23.380;2022-10-17T04:04:16;95977.72;;;7.28;86.76
3968;BME280;9221;42.646;23.380;2022-10-17T04:06:41;95934.84;;;7.00;86.62
3968;BME280;9221;42.646;23.380;2022-10-17T04:09:07;95960.34;;;6.84;87.45
3968;BME280;9221;42.646;23.380;2022-10-17T04:11:32;95998.16;;;6.80;88.38
3968;BME280;9221;42.646;23.380;2022-10-17T04:13:58;95980.75;;;6.93;88.43
3968;BME280;9221;42.646;23.380;2022-10-17T04:16:24;96012.94;;;6.81;88.83
3968;BME280;9221;42.646;23.380;2022-10-17T04:18:57;96002.44;;;6.81;89.03
3968;BME280;9221;42.646;23.380;2022-10-17T04:21:24;96017.06;;;6.70;89.38
3968;BME280;9221;42.646;23.380;2022-10-17T04:23:57;95979.41;;;6.57;90.28
3968;BME280;9221;42.646;23.380;2022-10-17T04:26:23;96065.84;;;6.42;90.70
3968;BME280;9221;42.646;23.380;2022-10-17T04:28:49;96004.06;;;6.38;90.89
3968;BME280;9221;42.646;23.380;2022-10-17T04:31:15;95997.78;;;6.41;90.70
3968;BME280;9221;42.646;23.380;2022-10-17T04:33:41;95970.94;;;6.52;90.21
3968;BME280;9221;42.646;23.380;2022-10-17T04:36:12;95978.41;;;6.88;89.42
3968;BME280;9221;42.646;23.380;2022-10-17T04:38:38;96037.66;;;6.76;88.90
3968;BME280;9221;42.646;23.380;2022-10-17T04:41:06;96006.91;;;6.64;88.88
3968;BME280;9221;42.646;23.380;2022-10-17T04:43:33;95926.75;;;6.31;88.44
3968;BME280;9221;42.646;23.380;2022-10-17T04:46:02;95986.59;;;6.53;89.46
3968;BME280;9221;42.646;23.380;2022-10-17T04:48:29;95990.78;;;6.41;90.05
3968;BME280;9221;42.646;23.380;2022-10-17T04:50:59;95991.13;;;6.35;90.40
3968;BME280;9221;42.646;23.380;2022-10-17T04:53:25;95927.19;;;5.93;90.53
3968;BME280;9221;42.646;23.380;2022-10-17T04:55:52;96038.66;;;6.29;90.98
3968;BME280;9221;42.646;23.380;2022-10-17T04:58:17;96004.47;;;6.47;90.64
3968;BME280;9221;42.646;23.380;2022-10-17T05:00:43;95932.84;;;6.01;90.02
3968;BME280;9221;42.646;23.380;2022-10-17T05:03:08;96007.81;;;6.49;89.82
3968;BME280;9221;42.646;23.380;2022-10-17T05:05:39;96052.44;;;6.63;90.06
3968;BME280;9221;42.646;23.380;2022-10-17T05:08:06;95994.78;;;6.63;89.57
3968;BME280;9221;42.646;23.380;2022-10-17T05:10:37;95994.78;;;6.63;89.61
3968;BME280;9221;42.646;23.380;2022-10-17T05:13:02;95972.97;;;6.32;89.39
3968;BME280;9221;42.646;23.380;2022-10-17T05:15:28;96006.13;;;6.78;89.24
3968;BME280;9221;42.646;23.380;2022-10-17T05:17:54;96028.84;;;6.77;89.62
3968;BME280;9221;42.646;23.380;2022-10-17T05:20:20;96006.56;;;6.70;90.11
3968;BME280;9221;42.646;23.380;2022-10-17T05:22:45;96024.56;;;6.91;89.68
3968;BME280;9221;42.646;23.380;2022-10-17T05:25:11;95990.47;;;6.76;89.38
3968;BME280;9221;42.646;23.380;2022-10-17T05:27:37;96028.50;;;6.98;89.23
3968;BME280;9221;42.646;23.380;2022-10-17T05:30:03;96014.09;;;6.91;88.97
3968;BME280;9221;42.646;23.380;2022-10-17T05:32:28;96056.81;;;7.07;89.21
3968;BME280;9221;42.646;23.380;2022-10-17T05:34:54;96051.84;;;7.17;88.18
3968;BME280;9221;42.646;23.380;2022-10-17T05:37:19;95964.81;;;6.96;87.68
3968;BME280;9221;42.646;23.380;2022-10-17T05:39:44;95996.94;;;7.28;87.08
3968;BME280;9221;42.646;23.380;2022-10-17T05:42:10;95988.88;;;7.32;86.13
3968;BME280;9221;42.646;23.380;2022-10-17T05:44:35;96035.47;;;7.42;86.60
3968;BME280;9221;42.646;23.380;2022-10-17T05:47:01;96043.88;;;7.62;86.85
3968;BME280;9221;42.646;23.380;2022-10-17T05:49:26;96043.44;;;7.83;86.22
3968;BME280;9221;42.646;23.380;2022-10-17T05:51:51;96130.13;;;7.68;85.67
3968;BME280;9221;42.646;23.380;2022-10-17T05:54:17;96077.03;;;7.77;85.29
3968;BME280;9221;42.646;23.380;2022-10-17T05:56:42;96045.13;;;7.84;84.62
3968;BME280;9221;42.646;23.380;2022-10-17T05:59:08;96060.31;;;7.93;84.58
3968;BME280;9221;42.646;23.380;2022-10-17T06:01:33;96046.00;;;8.11;84.67
3968;BME280;9221;42.646;23.380;2022-10-17T06:03:58;96049.72;;;8.22;83.36
3968;BME280;9221;42.646;23.380;2022-10-17T06:06:24;95992.38;;;8.01;83.02
3968;BME280;9221;42.646;23.380;2022-10-17T06:08:49;96072.38;;;8.64;81.60
3968;BME280;9221;42.646;23.380;2022-10-17T06:11:14;96091.28;;;8.57;80.53
3968;BME280;9221;42.646;23.380;2022-10-17T06:13:40;96098.56;;;8.39;81.31
3968;BME280;9221;42.646;23.380;2022-10-17T06:16:06;96063.72;;;8.50;81.34
3968;BME280;9221;42.646;23.380;2022-10-17T06:18:32;96051.44;;;8.63;80.85
3968;BME280;9221;42.646;23.380;2022-10-17T06:21:02;96067.59;;;8.97;80.71
3968;BME280;9221;42.646;23.380;2022-10-17T06:23:28;96075.09;;;9.16;79.10
3968;BME280;9221;42.646;23.380;2022-10-17T06:25:57;96128.38;;;9.45;78.89
3968;BME280;9221;42.646;23.380;2022-10-17T06:28:23;96085.69;;;9.66;78.24
3968;BME280;9221;42.646;23.380;2022-10-17T06:30:49;96101.22;;;10.08;77.13
3968;BME280;9221;42.646;23.380;2022-10-17T06:33:14;96106.03;;;10.27;75.98
3968;BME280;9221;42.646;23.380;2022-10-17T06:35:40;96086.09;;;10.60;75.10
3968;BME280;9221;42.646;23.380;2022-10-17T06:38:06;96085.44;;;10.80;74.62
3968;BME280;9221;42.646;23.380;2022-10-17T06:40:31;96037.03;;;10.57;74.22
3968;BME280;9221;42.646;23.380;2022-10-17T06:42:57;96072.59;;;11.11;73.47
3968;BME280;9221;42.646;23.380;2022-10-17T06:45:24;96104.94;;;11.49;72.39
3968;BME280;9221;42.646;23.380;2022-10-17T06:47:49;96022.44;;;11.23;72.05
3968;BME280;9221;42.646;23.380;2022-10-17T06:50:15;96033.22;;;11.54;70.59
3968;BME280;9221;42.646;23.380;2022-10-17T06:52:40;96096.06;;;12.07;70.22
3968;BME280;9221;42.646;23.380;2022-10-17T06:55:06;96130.06;;;12.23;69.87
3968;BME280;9221;42.646;23.380;2022-10-17T06:57:31;96044.53;;;12.01;68.35
3968;BME280;9221;42.646;23.380;2022-10-17T06:59:57;96099.56;;;12.62;68.23
3968;BME280;9221;42.646;23.380;2022-10-17T07:02:22;96106.41;;;12.97;67.29
3968;BME280;9221;42.646;23.380;2022-10-17T07:04:48;96098.41;;;13.30;65.37
3968;BME280;9221;42.646;23.380;2022-10-17T07:07:14;96091.06;;;13.54;64.92
3968;BME280;9221;42.646;23.380;2022-10-17T07:09:39;96090.25;;;13.64;63.40
3968;BME280;9221;42.646;23.380;2022-10-17T07:12:04;96113.78;;;13.78;62.89
3968;BME280;9221;42.646;23.380;2022-10-17T07:14:32;96060.75;;;13.47;62.77
3968;BME280;9221;42.646;23.380;2022-10-17T07:16:58;96101.66;;;14.16;61.59
3968;BME280;9221;42.646;23.380;2022-10-17T07:19:24;96099.34;;;14.52;61.17
3968;BME280;9221;42.646;23.380;2022-10-17T07:21:51;96068.59;;;13.90;60.52
3968;BME280;9221;42.646;23.380;2022-10-17T07:24:16;96097.91;;;14.29;61.17
3968;BME280;9221;42.646;23.380;2022-10-17T07:26:41;96057.81;;;14.22;60.79
3968;BME280;9221;42.646;23.380;2022-10-17T07:29:08;96085.47;;;14.29;60.61
3968;BME280;9221;42.646;23.380;2022-10-17T07:31:35;96097.25;;;14.46;59.63
3968;BME280;9221;42.646;23.380;2022-10-17T07:34:01;96099.19;;;14.44;60.97
3968;BME280;9221;42.646;23.380;2022-10-17T07:36:26;96087.97;;;15.01;58.92
3968;BME280;9221;42.646;23.380;2022-10-17T07:38:52;96102.91;;;15.31;57.08
3968;BME280;9221;42.646;23.380;2022-10-17T07:41:17;96112.53;;;15.42;57.41
3968;BME280;9221;42.646;23.380;2022-10-17T07:43:44;96104.34;;;15.73;56.16
3968;BME280;9221;42.646;23.380;2022-10-17T07:46:09;96131.28;;;16.07;54.78
3968;BME280;9221;42.646;23.380;2022-10-17T07:48:36;96110.28;;;15.57;56.15
3968;BME280;9221;42.646;23.380;2022-10-17T07:51:04;96095.00;;;15.59;56.85
3968;BME280;9221;42.646;23.380;2022-10-17T07:53:29;96106.44;;;15.79;55.58
3968;BME280;9221;42.646;23.380;2022-10-17T07:55:55;96103.97;;;16.05;55.03
3968;BME280;9221;42.646;23.380;2022-10-17T07:58:20;96124.13;;;16.36;54.56
3968;BME280;9221;42.646;23.380;2022-10-17T08:00:46;96098.38;;;17.18;51.81
3968;BME280;9221;42.646;23.380;2022-10-17T08:03:15;96098.84;;;17.58;50.63
3968;BME280;9221;42.646;23.380;2022-10-17T08:05:40;96119.59;;;17.46;49.28
3968;BME280;9221;42.646;23.380;2022-10-17T08:08:06;96078.00;;;17.62;49.73
3968;BME280;9221;42.646;23.380;2022-10-17T08:10:31;96074.63;;;18.55;47.84
3968;BME280;9221;42.646;23.380;2022-10-17T08:12:57;96083.75;;;19.36;45.83
3968;BME280;9221;42.646;23.380;2022-10-17T08:15:24;96107.59;;;20.04;44.17
3968;BME280;9221;42.646;23.380;2022-10-17T08:17:50;96078.66;;;20.39;42.60
3968;BME280;9221;42.646;23.380;2022-10-17T08:20:16;96069.91;;;20.85;41.95
3968;BME280;9221;42.646;23.380;2022-10-17T08:22:42;96065.44;;;21.23;41.13
3968;BME280;9221;42.646;23.380;2022-10-17T08:25:08;96101.19;;;21.62;40.42
3968;BME280;9221;42.646;23.380;2022-10-17T08:27:34;96079.84;;;21.98;39.00
3968;BME280;9221;42.646;23.380;2022-10-17T08:30:00;96070.38;;;21.73;40.25
3968;BME280;9221;42.646;23.380;2022-10-17T08:32:26;96030.00;;;21.81;40.06
3968;BME280;9221;42.646;23.380;2022-10-17T08:34:52;96090.59;;;22.58;38.80
3968;BME280;9221;42.646;23.380;2022-10-17T08:37:20;96077.94;;;22.74;37.92
3968;BME280;9221;42.646;23.380;2022-10-17T08:39:46;96070.22;;;22.49;38.49
3968;BME280;9221;42.646;23.380;2022-10-17T08:47:46;96043.31;;;21.59;38.85
3968;BME280;9221;42.646;23.380;2022-10-17T08:50:24;96086.97;;;21.15;39.32
3968;BME280;9221;42.646;23.380;2022-10-17T08:55:50;96064.53;;;21.84;37.99
3968;BME280;9221;42.646;23.380;2022-10-17T08:58:20;96075.84;;;21.64;37.93
3968;BME280;9221;42.646;23.380;2022-10-17T09:00:55;96009.19;;;21.83;36.67
3968;BME280;9221;42.646;23.380;2022-10-17T09:06:31;96059.84;;;21.48;36.61
3968;BME280;9221;42.646;23.380;2022-10-17T09:22:51;96041.56;;;22.78;33.45
3968;BME280;9221;42.646;23.380;2022-10-17T09:25:20;96085.56;;;23.28;33.66
3968;BME280;9221;42.646;23.380;2022-10-17T09:28:00;96042.47;;;23.07;31.80
3968;BME280;9221;42.646;23.380;2022-10-17T09:30:53;96026.19;;;22.93;31.78
3968;BME280;9221;42.646;23.380;2022-10-17T09:33:25;96025.34;;;22.35;32.50
3968;BME280;9221;42.646;23.380;2022-10-17T09:35:53;96070.84;;;22.36;33.59
3968;BME280;9221;42.646;23.380;2022-10-17T09:38:22;96067.41;;;22.27;33.96
3968;BME280;9221;42.646;23.380;2022-10-17T09:40:58;96077.47;;;22.70;34.70
3968;BME280;9221;42.646;23.380;2022-10-17T09:43:25;96070.00;;;23.52;32.81
3968;BME280;9221;42.646;23.380;2022-10-17T09:46:12;96071.06;;;23.51;31.88
3968;BME280;9221;42.646;23.380;2022-10-17T09:48:53;96068.69;;;23.70;29.35
3968;BME280;9221;42.646;23.380;2022-10-17T09:51:21;96081.75;;;23.01;31.08
3968;BME280;9221;42.646;23.380;2022-10-17T09:53:50;96060.84;;;23.96;30.98
3968;BME280;9221;42.646;23.380;2022-10-17T09:56:19;96062.06;;;24.36;29.33
3968;BME280;9221;42.646;23.380;2022-10-17T09:58:46;96053.84;;;24.50;28.64
3968;BME280;9221;42.646;23.380;2022-10-17T10:01:30;96054.56;;;24.24;28.00
3968;BME280;9221;42.646;23.380;2022-10-17T10:04:15;96045.22;;;24.20;28.21
3968;BME280;9221;42.646;23.380;2022-10-17T10:07:03;96009.53;;;24.18;27.90
3968;BME280;9221;42.646;23.380;2022-10-17T10:09:31;96049.56;;;24.70;27.47
3968;BME280;9221;42.646;23.380;2022-10-17T10:12:00;96004.84;;;23.92;28.63
3968;BME280;9221;42.646;23.380;2022-10-17T10:14:33;95988.25;;;23.88;28.87
3968;BME280;9221;42.646;23.380;2022-10-17T10:17:00;96050.25;;;24.37;28.07
3968;BME280;9221;42.646;23.380;2022-10-17T10:19:37;95990.25;;;24.21;27.72
3968;BME280;9221;42.646;23.380;2022-10-17T10:22:04;96074.34;;;24.45;27.86
3968;BME280;9221;42.646;23.380;2022-10-17T10:24:31;96041.56;;;24.35;28.27
3968;BME280;9221;42.646;23.380;2022-10-17T10:27:02;96034.69;;;24.87;27.67
3968;BME280;9221;42.646;23.380;2022-10-17T10:29:31;96047.91;;;24.69;27.83
3968;BME280;9221;42.646;23.380;2022-10-17T10:34:52;96026.38;;;26.09;26.28
3968;BME280;9221;42.646;23.380;2022-10-17T10:37:28;95952.88;;;25.20;26.43
3968;BME280;9221;42.646;23.380;2022-10-17T10:39:59;96037.25;;;25.62;26.47
3968;BME280;9221;42.646;23.380;2022-10-17T10:42:31;96064.91;;;24.62;26.90
3968;BME280;9221;42.646;23.380;2022-10-17T10:45:23;96015.47;;;24.55;27.39
3968;BME280;9221;42.646;23.380;2022-10-17T10:47:57;96021.63;;;23.65;27.44
3968;BME280;9221;42.646;23.380;2022-10-17T10:50:40;96022.56;;;22.43;29.08
3968;BME280;9221;42.646;23.380;2022-10-17T10:56:04;96011.38;;;23.47;28.19
3968;BME280;9221;42.646;23.380;2022-10-17T10:58:43;95947.91;;;23.66;27.33
3968;BME280;9221;42.646;23.380;2022-10-17T11:06:48;95991.50;;;24.87;26.17
3968;BME280;9221;42.646;23.380;2022-10-17T11:14:59;96029.66;;;23.87;26.77
3968;BME280;9221;42.646;23.380;2022-10-17T11:20:10;95999.16;;;22.58;27.92
3968;BME280;9221;42.646;23.380;2022-10-17T11:22:43;96003.78;;;22.64;27.93
3968;BME280;9221;42.646;23.380;2022-10-17T11:27:36;95982.66;;;23.05;28.06
3968;BME280;9221;42.646;23.380;2022-10-17T11:30:03;95960.00;;;22.71;28.45
3968;BME280;9221;42.646;23.380;2022-10-17T11:32:39;95979.63;;;22.50;29.44
3968;BME280;9221;42.646;23.380;2022-10-17T11:35:12;95985.69;;;22.37;29.46
3968;BME280;9221;42.646;23.380;2022-10-17T11:37:50;95990.88;;;22.23;29.50
3968;BME280;9221;42.646;23.380;2022-10-17T11:40:30;95921.69;;;21.74;29.76
3968;BME280;9221;42.646;23.380;2022-10-17T11:43:02;96000.09;;;21.69;29.80
3968;BME280;9221;42.646;23.380;2022-10-17T11:45:33;95970.69;;;21.38;30.70
3968;BME280;9221;42.646;23.380;2022-10-17T11:48:05;95967.47;;;21.27;30.71
3968;BME280;9221;42.646;23.380;2022-10-17T11:50:40;95972.09;;;21.19;30.97
3968;BME280;9221;42.646;23.380;2022-10-17T11:53:16;95929.81;;;20.83;30.66
3968;BME280;9221;42.646;23.380;2022-10-17T11:55:42;95949.25;;;20.85;30.83
3968;BME280;9221;42.646;23.380;2022-10-17T11:58:28;95955.28;;;21.02;30.09
3968;BME280;9221;42.646;23.380;2022-10-17T12:12:27;95942.91;;;20.54;30.82
3968;BME280;9221;42.646;23.380;2022-10-17T12:15:40;95956.84;;;20.26;31.41
3968;BME280;9221;42.646;23.380;2022-10-17T12:17:45;95944.13;;;20.28;31.71
3968;BME280;9221;42.646;23.380;2022-10-17T12:22:46;96002.00;;;20.29;31.50
3968;BME280;9221;42.646;23.380;2022-10-17T12:25:29;95953.16;;;20.27;31.52
3968;BME280;9221;42.646;23.380;2022-10-17T12:38:46;95926.78;;;20.08;31.38
3968;BME280;9221;42.646;23.380;2022-10-17T12:41:12;95941.81;;;20.17;31.69
3968;BME280;9221;42.646;23.380;2022-10-17T12:43:51;95969.69;;;20.31;31.59
3968;BME280;9221;42.646;23.380;2022-10-17T13:00:21;95936.78;;;20.22;30.83
3968;BME280;9221;42.646;23.380;2022-10-17T13:02:48;95929.09;;;20.19;30.60
3968;BME280;9221;42.646;23.380;2022-10-17T13:05:35;95962.56;;;20.23;30.83
3968;BME280;9221;42.646;23.380;2022-10-17T13:08:04;95960.28;;;20.12;31.10
3968;BME280;9221;42.646;23.380;2022-10-17T13:10:33;95933.97;;;19.76;30.68
3968;BME280;9221;42.646;23.380;2022-10-17T13:13:09;95949.44;;;19.57;30.82
3968;BME280;9221;42.646;23.380;2022-10-17T13:15:38;95884.75;;;19.45;31.09
3968;BME280;9221;42.646;23.380;2022-10-17T13:18:04;95936.63;;;19.84;30.51
3968;BME280;9221;42.646;23.380;2022-10-17T13:20:30;95937.28;;;19.94;29.95
3968;BME280;9221;42.646;23.380;2022-10-17T13:22:56;95876.13;;;19.67;30.28
3968;BME280;9221;42.646;23.380;2022-10-17T13:28:11;95972.19;;;20.09;29.30
3968;BME280;9221;42.646;23.380;2022-10-17T13:30:38;95883.56;;;19.56;28.25
3968;BME280;9221;42.646;23.380;2022-10-17T13:33:17;95966.25;;;19.83;28.31
3968;BME280;9221;42.646;23.380;2022-10-17T13:35:51;95941.41;;;20.05;28.05
3968;BME280;9221;42.646;23.380;2022-10-17T13:38:17;95910.13;;;19.98;28.26
3968;BME280;9221;42.646;23.380;2022-10-17T13:40:44;95955.03;;;20.19;28.38
3968;BME280;9221;42.646;23.380;2022-10-17T13:43:16;95902.75;;;20.00;27.77
3968;BME280;9221;42.646;23.380;2022-10-17T13:45:48;95966.09;;;20.16;27.58
3968;BME280;9221;42.646;23.380;2022-10-17T13:48:25;95913.28;;;19.70;28.01
3968;BME280;9221;42.646;23.380;2022-10-17T13:50:53;95929.56;;;20.23;28.42
3968;BME280;9221;42.646;23.380;2022-10-17T13:53:37;95907.94;;;20.01;27.33
3968;BME280;9221;42.646;23.380;2022-10-17T13:58:42;95900.53;;;19.80;27.68
3968;BME280;9221;42.646;23.380;2022-10-17T14:01:08;95876.00;;;19.60;28.50
3968;BME280;9221;42.646;23.380;2022-10-17T14:03:34;95960.34;;;19.95;28.41
3968;BME280;9221;42.646;23.380;2022-10-17T14:08:58;95877.78;;;19.68;29.17
3968;BME280;9221;42.646;23.380;2022-10-17T14:11:39;95927.25;;;19.88;30.51
3968;BME280;9221;42.646;23.380;2022-10-17T14:14:15;95937.59;;;19.91;31.10
3968;BME280;9221;42.646;23.380;2022-10-17T14:16:42;95942.34;;;19.81;31.54
3968;BME280;9221;42.646;23.380;2022-10-17T14:19:26;95902.59;;;19.61;32.02
3968;BME280;9221;42.646;23.380;2022-10-17T14:24:38;95947.53;;;19.83;33.86
3968;BME280;9221;42.646;23.380;2022-10-17T14:27:36;95939.66;;;19.81;34.26
3968;BME280;9221;42.646;23.380;2022-10-17T14:33:00;95950.06;;;19.68;35.46
3968;BME280;9221;42.646;23.380;2022-10-17T14:35:28;95974.50;;;19.65;36.06
3968;BME280;9221;42.646;23.380;2022-10-17T14:38:01;95885.66;;;19.30;36.30
3968;BME280;9221;42.646;23.380;2022-10-17T14:40:28;95948.56;;;19.65;36.76
3968;BME280;9221;42.646;23.380;2022-10-17T14:42:56;95953.81;;;19.50;37.22
3968;BME280;9221;42.646;23.380;2022-10-17T14:45:40;95945.69;;;19.19;38.43
3968;BME280;9221;42.646;23.380;2022-10-17T14:48:10;95948.16;;;19.28;38.57
3968;BME280;9221;42.646;23.380;2022-10-17T14:50:37;95952.88;;;19.18;38.59
3968;BME280;9221;42.646;23.380;2022-10-17T14:55:37;95915.50;;;18.69;39.34
3968;BME280;9221;42.646;23.380;2022-10-17T14:58:17;95968.94;;;18.85;39.77
3968;BME280;9221;42.646;23.380;2022-10-17T15:00:43;96028.38;;;18.63;39.98
3968;BME280;9221;42.646;23.380;2022-10-17T15:03:08;95969.13;;;18.75;40.10
3968;BME280;9221;42.646;23.380;2022-10-17T15:05:34;95939.69;;;18.42;40.09
3968;BME280;9221;42.646;23.380;2022-10-17T15:07:59;95983.94;;;18.78;40.36
3968;BME280;9221;42.646;23.380;2022-10-17T15:10:30;95907.16;;;18.47;40.19
3968;BME280;9221;42.646;23.380;2022-10-17T15:12:57;95974.28;;;18.85;45.73
3968;BME280;9221;42.646;23.380;2022-10-17T15:15:25;95962.75;;;19.01;43.44
3968;BME280;9221;42.646;23.380;2022-10-17T15:17:50;95971.28;;;19.13;45.88
3968;BME280;9221;42.646;23.380;2022-10-17T15:20:16;95993.00;;;19.26;45.24
3968;BME280;9221;42.646;23.380;2022-10-17T15:22:42;95973.94;;;19.21;42.11
3968;BME280;9221;42.646;23.380;2022-10-17T15:25:08;95956.94;;;18.98;41.85
3968;BME280;9221;42.646;23.380;2022-10-17T15:27:33;95903.13;;;18.51;41.55
3968;BME280;9221;42.646;23.380;2022-10-17T15:29:59;95977.25;;;18.57;41.96
3968;BME280;9221;42.646;23.380;2022-10-17T15:32:24;95988.44;;;18.44;42.05
3968;BME280;9221;42.646;23.380;2022-10-17T15:34:50;95999.25;;;18.18;42.66
3968;BME280;9221;42.646;23.380;2022-10-17T15:37:19;95962.84;;;18.09;42.69
3968;BME280;9221;42.646;23.380;2022-10-17T15:39:51;95988.25;;;18.38;44.44
3968;BME280;9221;42.646;23.380;2022-10-17T15:42:18;96018.38;;;18.56;47.62
3968;BME280;9221;42.646;23.380;2022-10-17T15:44:44;95988.81;;;18.58;45.94
3968;BME280;9221;42.646;23.380;2022-10-17T15:47:32;95879.56;;;17.46;42.63
3968;BME280;9221;42.646;23.380;2022-10-17T15:49:58;95998.44;;;18.34;42.92